Time;durP1;ratioP1;P1;durP2;ratioP2;P2;SDS_P1;SDS_P2;PMS_P1;PMS_P2;Temp;Humidity;BMP_temperature;BMP_pressure;BME280_temperature;BME280_humidity;BME280_pressure;Samples;Min_cycle;Max_cycle;Signal;HPM_P1;HPM_P2
2021/03/18 01:47:06;;;;;;;21.10;13.55;;;;;;;;;;6365863;22;20202;-96
2021/03/18 02:45:15;;;;;;;21.90;13.77;;;;;;;;;;6324915;22;20252;-96
2021/03/18 02:55:46;;;;;;;23.73;14.55;;;;;;;;;;6323651;22;20201;-95
2021/03/18 03:03:24;;;;;;;42.35;24.38;;;;;;;;;;6261391;22;20224;-96
2021/03/18 03:05:51;;;;;;;26.10;15.60;;;;;;;;;;6356528;22;20301;-96
2021/03/18 03:37:52;;;;;;;21.00;14.38;;;;;;;;;;6289513;22;20203;-96
2021/03/18 03:40:20;;;;;;;19.65;14.35;;;;;;;;;;6330382;22;20176;-96
2021/03/18 03:42:49;;;;;;;22.60;15.15;;;;;;;;;;6304220;22;20196;-96
2021/03/18 03:48:10;;;;;;;19.42;12.93;;;;;;;;;;6308154;22;20260;-96
2021/03/18 03:50:37;;;;;;;20.33;14.48;;;;;;;;;;6305625;22;20203;-96
2021/03/18 03:53:09;;;;;;;15.57;11.27;;;;;;;;;;6326280;22;20167;-96
2021/03/18 03:55:40;;;;;;;17.73;11.88;;;;;;;;;;6320566;22;20199;-96
2021/03/18 03:58:10;;;;;;;18.45;12.07;;;;;;;;;;6322186;22;20185;-96
2021/03/18 04:00:39;;;;;;;19.63;12.60;;;;;;;;;;6323727;22;20174;-96
2021/03/18 04:03:07;;;;;;;18.90;12.90;;;;;;;;;;6321742;22;20186;-96
2021/03/18 04:05:42;;;;;;;23.35;13.30;;;;;;;;;;6329092;22;20167;-96
2021/03/18 04:08:10;;;;;;;17.33;11.73;;;;;;;;;;6329194;22;20175;-96
2021/03/18 04:13:03;;;;;;;17.08;12.00;;;;;;;;;;6319575;22;20211;-96
2021/03/18 04:15:32;;;;;;;19.02;12.70;;;;;;;;;;6294551;22;20207;-95
2021/03/18 04:17:58;;;;;;;18.33;13.10;;;;;;;;;;6324513;22;20233;-96
2021/03/18 04:20:25;;;;;;;17.08;11.75;;;;;;;;;;6319273;22;20655;-95
2021/03/18 04:22:53;;;;;;;18.70;13.52;;;;;;;;;;6318655;22;20603;-96
2021/03/18 04:25:20;;;;;;;18.88;12.20;;;;;;;;;;6319294;22;20228;-96
2021/03/18 04:27:55;;;;;;;17.27;12.20;;;;;;;;;;6322634;22;20176;-95
2021/03/18 04:30:24;;;;;;;19.30;12.57;;;;;;;;;;6306685;22;20235;-96
2021/03/18 04:32:52;;;;;;;24.65;14.90;;;;;;;;;;6293176;22;20207;-96
2021/03/18 04:35:19;;;;;;;19.10;13.57;;;;;;;;;;6322850;22;20199;-96
2021/03/18 04:37:45;;;;;;;19.20;13.35;;;;;;;;;;6320940;22;20182;-96
2021/03/18 04:40:17;;;;;;;21.08;14.82;;;;;;;;;;6330329;22;20164;-96
2021/03/18 04:43:00;;;;;;;20.77;13.93;;;;;;;;;;6333799;22;20170;-96
2021/03/18 04:45:40;;;;;;;19.17;13.93;;;;;;;;;;6287055;22;20177;-96
2021/03/18 04:48:14;;;;;;;22.98;14.27;;;;;;;;;;6334574;22;20154;-96
2021/03/18 04:50:47;;;;;;;18.90;12.48;;;;;;;;;;6303567;22;20214;-96
2021/03/18 04:53:34;;;;;;;23.23;13.95;;;;;;;;;;6322234;22;20174;-96
2021/03/18 04:56:18;;;;;;;25.48;16.63;;;;;;;;;;6333800;22;20207;-96
2021/03/18 04:58:49;;;;;;;26.95;16.10;;;;;;;;;;6328923;22;20170;-96
2021/03/18 05:01:20;;;;;;;25.90;15.85;;;;;;;;;;6331819;22;20169;-96
2021/03/18 05:03:48;;;;;;;25.27;14.75;;;;;;;;;;6330324;22;20582;-96
2021/03/18 05:06:14;;;;;;;28.85;16.13;;;;;;;;;;6296311;22;20177;-96
2021/03/18 05:08:41;;;;;;;28.70;17.23;;;;;;;;;;6324869;22;20178;-96
2021/03/18 05:11:08;;;;;;;29.08;16.95;;;;;;;;;;6321665;22;20181;-96
2021/03/18 05:13:35;;;;;;;24.70;16.92;;;;;;;;;;6323808;22;20180;-96
2021/03/18 05:16:03;;;;;;;25.42;17.20;;;;;;;;;;6327278;22;20220;-96
2021/03/18 05:18:32;;;;;;;26.23;18.38;;;;;;;;;;6328628;22;20167;-96
2021/03/18 05:21:01;;;;;;;24.40;17.60;;;;;;;;;;6329814;22;20210;-96
2021/03/18 05:23:27;;;;;;;31.38;20.77;;;;;;;;;;6307816;22;20208;-96
2021/03/18 05:25:55;;;;;;;29.05;19.25;;;;;;;;;;6321068;22;20185;-96
2021/03/18 05:28:22;;;;;;;28.67;20.05;;;;;;;;;;6318135;22;20172;-96
2021/03/18 05:30:50;;;;;;;29.80;19.70;;;;;;;;;;6318493;22;20171;-96
2021/03/18 05:33:17;;;;;;;27.58;19.90;;;;;;;;;;6318303;22;20345;-96
2021/03/18 05:36:01;;;;;;;24.75;19.00;;;;;;;;;;6323109;22;20228;-96
2021/03/18 05:38:29;;;;;;;28.23;19.33;;;;;;;;;;6324651;22;20173;-96
2021/03/18 05:40:56;;;;;;;25.40;17.10;;;;;;;;;;6291599;22;20180;-96
2021/03/18 05:43:24;;;;;;;25.42;18.30;;;;;;;;;;6319220;22;20172;-96
2021/03/18 05:45:51;;;;;;;27.67;19.30;;;;;;;;;;6317542;22;20180;-96
2021/03/18 05:48:18;;;;;;;24.38;17.30;;;;;;;;;;6321242;22;20200;-96
2021/03/18 05:50:45;;;;;;;26.05;17.70;;;;;;;;;;6322127;22;20226;-96
2021/03/18 05:53:11;;;;;;;20.92;14.88;;;;;;;;;;6322691;22;20253;-96
2021/03/18 05:55:38;;;;;;;27.48;17.83;;;;;;;;;;6320181;22;20224;-96
2021/03/18 05:58:05;;;;;;;25.02;17.58;;;;;;;;;;6319316;22;20177;-95
2021/03/18 06:00:33;;;;;;;21.42;14.85;;;;;;;;;;6322730;22;20174;-96
2021/03/18 06:03:02;;;;;;;23.23;16.27;;;;;;;;;;6326149;22;20174;-96
2021/03/18 06:08:12;;;;;;;27.95;16.80;;;;;;;;;;6327221;22;20161;-96
2021/03/18 06:10:39;;;;;;;22.08;16.58;;;;;;;;;;6324287;22;20173;-96
2021/03/18 06:15:41;;;;;;;21.13;15.33;;;;;;;;;;6318280;22;20455;-95
2021/03/18 06:18:14;;;;;;;24.67;15.47;;;;;;;;;;6327644;22;20416;-96
2021/03/18 06:20:52;;;;;;;21.33;16.00;;;;;;;;;;6331358;22;20388;-95
2021/03/18 06:23:19;;;;;;;21.70;16.60;;;;;;;;;;6323968;22;20211;-95
2021/03/18 06:28:44;;;;;;;18.77;14.20;;;;;;;;;;6331002;22;20404;-95
2021/03/18 06:33:58;;;;;;;17.87;13.20;;;;;;;;;;6330259;22;20407;-95
2021/03/18 06:39:17;;;;;;;17.83;13.80;;;;;;;;;;6328006;22;20403;-95
2021/03/18 06:42:06;;;;;;;20.93;13.87;;;;;;;;;;6330657;22;20410;-95
2021/03/18 06:47:56;;;;;;;19.80;14.30;;;;;;;;;;6329403;22;20419;-96
2021/03/18 06:50:35;;;;;;;17.37;13.77;;;;;;;;;;6332963;22;20458;-93
2021/03/18 06:53:28;;;;;;;23.03;15.43;;;;;;;;;;6306250;22;20411;-95
2021/03/18 06:55:59;;;;;;;22.77;14.20;;;;;;;;;;6325043;22;20430;-95
2021/03/18 06:58:35;;;;;;;24.98;15.23;;;;;;;;;;6303577;22;20406;-95
2021/03/18 07:01:08;;;;;;;22.50;15.80;;;;;;;;;;6333948;22;20198;-95
2021/03/18 07:03:45;;;;;;;19.77;14.00;;;;;;;;;;6333548;22;20460;-96
2021/03/18 07:09:11;;;;;;;20.07;14.33;;;;;;;;;;6330079;22;20392;-96
2021/03/18 07:11:41;;;;;;;18.70;13.37;;;;;;;;;;6324838;22;20400;-96
2021/03/18 07:14:08;;;;;;;21.97;13.00;;;;;;;;;;6320010;22;20461;-95
2021/03/18 07:16:44;;;;;;;19.40;14.23;;;;;;;;;;6318734;22;20508;-95
2021/03/18 07:19:20;;;;;;;18.77;13.50;;;;;;;;;;6327411;22;20403;-96
2021/03/18 07:21:51;;;;;;;23.10;15.80;;;;;;;;;;6330540;22;20399;-96
2021/03/18 07:24:35;;;;;;;24.13;17.60;;;;;;;;;;6330532;22;20466;-94
2021/03/18 07:27:17;;;;;;;22.70;17.07;;;;;;;;;;6328920;22;20416;-95
2021/03/18 07:29:51;;;;;;;25.77;17.10;;;;;;;;;;6331637;22;20890;-94
2021/03/18 07:32:24;;;;;;;21.40;15.60;;;;;;;;;;6330141;22;20614;-95
2021/03/18 07:34:54;;;;;;;24.60;16.37;;;;;;;;;;6328861;22;20431;-95
2021/03/18 07:37:20;;;;;;;19.83;14.37;;;;;;;;;;6328834;22;20436;-94
2021/03/18 07:39:46;;;;;;;20.13;15.57;;;;;;;;;;6328137;22;20431;-96
2021/03/18 07:42:14;;;;;;;14.20;11.00;;;;;;;;;;6326487;22;20412;-96
2021/03/18 07:44:42;;;;;;;17.30;11.60;;;;;;;;;;6322780;22;20443;-94
2021/03/18 07:47:09;;;;;;;21.17;15.40;;;;;;;;;;6324995;22;20538;-94
2021/03/18 07:49:39;;;;;;;14.60;10.97;;;;;;;;;;6328562;22;20495;-95
2021/03/18 07:52:10;;;;;;;15.10;12.30;;;;;;;;;;6331394;22;20399;-96
2021/03/18 07:54:37;;;;;;;14.00;9.67;;;;;;;;;;6333412;22;20396;-95
2021/03/18 07:57:14;;;;;;;10.97;9.10;;;;;;;;;;6330070;22;20531;-95
2021/03/18 07:59:49;;;;;;;10.53;9.00;;;;;;;;;;6329283;22;20383;-95
2021/03/18 08:02:17;;;;;;;9.73;8.67;;;;;;;;;;6327616;22;20471;-96
2021/03/18 08:04:46;;;;;;;10.33;8.17;;;;;;;;;;6326649;22;20403;-95
2021/03/18 08:07:39;;;;;;;11.70;8.87;;;;;;;;;;6325355;22;20487;-94
2021/03/18 08:10:13;;;;;;;9.97;8.30;;;;;;;;;;6328217;22;20411;-93
2021/03/18 08:12:44;;;;;;;12.20;9.63;;;;;;;;;;6326696;22;20709;-95
2021/03/18 08:15:27;;;;;;;12.27;9.60;;;;;;;;;;6330594;22;20411;-94
2021/03/18 08:17:55;;;;;;;11.00;8.33;;;;;;;;;;6330319;22;20408;-94
2021/03/18 08:20:41;;;;;;;10.20;8.80;;;;;;;;;;6326753;22;20427;-93
2021/03/18 08:23:22;;;;;;;11.47;9.03;;;;;;;;;;6327601;22;20439;-96
2021/03/18 08:25:48;;;;;;;12.13;9.63;;;;;;;;;;6327100;22;20414;-95
2021/03/18 08:28:29;;;;;;;10.13;8.70;;;;;;;;;;6330723;22;20498;-96
2021/03/18 08:30:57;;;;;;;9.40;7.80;;;;;;;;;;6327477;22;20512;-94
2021/03/18 08:33:44;;;;;;;6.97;6.27;;;;;;;;;;6328495;22;20426;-95
2021/03/18 08:36:21;;;;;;;9.27;6.00;;;;;;;;;;6327444;22;20435;-94
2021/03/18 08:38:50;;;;;;;7.00;6.30;;;;;;;;;;6322271;22;20403;-94
2021/03/18 08:41:27;;;;;;;8.40;7.60;;;;;;;;;;6324960;22;20408;-94
2021/03/18 08:44:13;;;;;;;7.50;6.70;;;;;;;;;;6329413;22;20412;-94
2021/03/18 08:46:44;;;;;;;7.80;6.87;;;;;;;;;;6332223;22;20684;-96
2021/03/18 08:49:21;;;;;;;10.23;7.10;;;;;;;;;;6325433;22;20415;-96
2021/03/18 08:54:49;;;;;;;8.60;7.00;;;;;;;;;;6360756;22;20415;-95
2021/03/18 08:57:22;;;;;;;7.40;6.30;;;;;;;;;;6356771;22;20446;-94
2021/03/18 08:59:51;;;;;;;7.83;6.70;;;;;;;;;;6351673;22;21079;-94
2021/03/18 09:02:20;;;;;;;8.00;6.83;;;;;;;;;;6355312;22;20422;-94
2021/03/18 09:04:49;;;;;;;7.00;6.30;;;;;;;;;;6351882;22;20408;-94
2021/03/18 09:07:16;;;;;;;7.77;6.97;;;;;;;;;;6350010;22;20497;-94
2021/03/18 09:09:42;;;;;;;7.87;6.63;;;;;;;;;;6350609;22;20452;-94
2021/03/18 09:12:09;;;;;;;7.13;6.40;;;;;;;;;;6351414;22;20478;-94
2021/03/18 09:14:36;;;;;;;6.93;6.10;;;;;;;;;;6356009;22;20403;-94
2021/03/18 09:17:03;;;;;;;7.50;6.60;;;;;;;;;;6351484;22;21307;-95
2021/03/18 09:19:33;;;;;;;7.97;6.60;;;;;;;;;;6346760;22;20411;-94
2021/03/18 09:21:59;;;;;;;9.10;7.00;;;;;;;;;;6351756;22;21016;-95
2021/03/18 09:24:33;;;;;;;7.80;5.90;;;;;;;;;;6349835;22;20405;-93
2021/03/18 09:27:03;;;;;;;7.03;5.50;;;;;;;;;;6347545;22;20415;-95
2021/03/18 09:29:29;;;;;;;6.60;5.83;;;;;;;;;;6346668;22;20407;-94
2021/03/18 09:32:00;;;;;;;6.27;5.67;;;;;;;;;;6351137;22;20492;-94
2021/03/18 09:34:30;;;;;;;6.43;5.83;;;;;;;;;;6352983;22;20403;-94
2021/03/18 09:36:57;;;;;;;9.37;6.20;;;;;;;;;;6352449;22;20825;-95
2021/03/18 09:39:23;;;;;;;8.07;6.07;;;;;;;;;;6352492;22;20410;-96
2021/03/18 09:41:53;;;;;;;7.17;6.17;;;;;;;;;;6353759;22;20437;-96
2021/03/18 09:44:20;;;;;;;7.13;6.30;;;;;;;;;;6353571;22;20480;-95
2021/03/18 09:46:47;;;;;;;5.93;5.33;;;;;;;;;;6355440;22;20403;-92
2021/03/18 09:49:13;;;;;;;5.40;5.00;;;;;;;;;;6353721;22;20908;-94
2021/03/18 09:51:40;;;;;;;6.73;6.03;;;;;;;;;;6351098;22;20430;-94
2021/03/18 09:54:11;;;;;;;6.80;6.10;;;;;;;;;;6351160;22;20810;-95
2021/03/18 09:56:38;;;;;;;9.87;6.60;;;;;;;;;;6353343;22;20438;-95
2021/03/18 09:59:08;;;;;;;8.93;5.40;;;;;;;;;;6352030;22;20399;-95
2021/03/18 10:01:34;;;;;;;5.77;5.10;;;;;;;;;;6350269;22;20395;-90
2021/03/18 10:04:01;;;;;;;10.33;5.53;;;;;;;;;;6349390;22;20408;-91
2021/03/18 10:06:28;;;;;;;8.37;6.07;;;;;;;;;;6348706;22;20399;-93
2021/03/18 10:08:54;;;;;;;6.80;6.10;;;;;;;;;;6349388;22;20422;-94
2021/03/18 10:11:22;;;;;;;8.33;7.40;;;;;;;;;;6351085;22;20407;-93
2021/03/18 10:13:48;;;;;;;6.30;5.63;;;;;;;;;;6351070;22;20409;-94
2021/03/18 10:16:15;;;;;;;6.50;4.93;;;;;;;;;;6322214;22;20451;-92
2021/03/18 10:18:41;;;;;;;7.60;5.83;;;;;;;;;;6354457;22;20410;-96
2021/03/18 10:21:07;;;;;;;5.80;5.30;;;;;;;;;;6351138;22;20406;-94
2021/03/18 10:23:34;;;;;;;6.67;6.07;;;;;;;;;;6354380;22;20422;-95
2021/03/18 10:26:00;;;;;;;6.00;4.90;;;;;;;;;;6352400;22;20416;-90
2021/03/18 10:28:31;;;;;;;6.20;5.30;;;;;;;;;;6351313;22;20403;-95
2021/03/18 10:30:57;;;;;;;7.53;6.30;;;;;;;;;;6351690;22;20399;-94
2021/03/18 10:33:24;;;;;;;6.40;5.70;;;;;;;;;;6350447;22;20414;-93
2021/03/18 10:36:00;;;;;;;8.10;6.80;;;;;;;;;;6353561;22;20424;-93
2021/03/18 10:38:29;;;;;;;6.63;5.87;;;;;;;;;;6347108;22;20417;-93
2021/03/18 10:40:56;;;;;;;5.93;5.00;;;;;;;;;;6349586;22;20415;-92
2021/03/18 10:43:26;;;;;;;5.73;5.23;;;;;;;;;;6352266;22;20407;-94
2021/03/18 10:45:57;;;;;;;6.27;5.30;;;;;;;;;;6353349;22;20438;-96
2021/03/18 10:48:24;;;;;;;8.93;5.73;;;;;;;;;;6349256;22;20408;-95
2021/03/18 10:50:51;;;;;;;6.70;5.10;;;;;;;;;;6349939;22;20438;-95
2021/03/18 10:53:20;;;;;;;6.90;5.67;;;;;;;;;;6351901;22;20441;-93
2021/03/18 10:55:49;;;;;;;5.80;5.17;;;;;;;;;;6353343;22;20460;-94
2021/03/18 10:58:16;;;;;;;6.03;5.37;;;;;;;;;;6348781;22;20407;-91
2021/03/18 11:00:43;;;;;;;5.93;5.33;;;;;;;;;;6350802;22;20407;-95
2021/03/18 11:03:11;;;;;;;7.90;6.37;;;;;;;;;;6348134;22;20436;-92
2021/03/18 11:05:40;;;;;;;5.83;4.83;;;;;;;;;;6354584;22;20399;-93
2021/03/18 11:08:07;;;;;;;5.53;5.03;;;;;;;;;;6351906;22;20407;-93
2021/03/18 11:10:34;;;;;;;6.37;5.17;;;;;;;;;;6351846;22;20411;-96
2021/03/18 11:13:03;;;;;;;11.10;9.37;;;;;;;;;;6350957;22;20410;-95
2021/03/18 11:15:42;;;;;;;9.73;7.00;;;;;;;;;;6348860;22;20435;-93
2021/03/18 11:18:10;;;;;;;9.00;5.63;;;;;;;;;;6347989;22;20440;-93
2021/03/18 11:20:36;;;;;;;7.33;6.43;;;;;;;;;;6354426;22;20410;-94
2021/03/18 11:23:19;;;;;;;5.20;4.63;;;;;;;;;;6352968;22;20426;-95
2021/03/18 11:25:54;;;;;;;9.57;6.90;;;;;;;;;;6346420;22;20402;-93
2021/03/18 11:28:20;;;;;;;6.20;4.97;;;;;;;;;;6344401;22;20422;-95
2021/03/18 11:30:47;;;;;;;6.37;5.70;;;;;;;;;;6344592;22;20403;-95
2021/03/18 11:33:15;;;;;;;8.17;5.67;;;;;;;;;;6348538;22;20480;-91
2021/03/18 11:35:42;;;;;;;5.80;4.93;;;;;;;;;;6349031;22;20468;-93
2021/03/18 11:38:08;;;;;;;7.50;6.27;;;;;;;;;;6350604;22;20408;-92
2021/03/18 11:40:34;;;;;;;6.67;5.60;;;;;;;;;;6347920;22;20444;-96
2021/03/18 11:43:00;;;;;;;7.27;5.30;;;;;;;;;;6352048;22;20413;-94
2021/03/18 11:45:27;;;;;;;5.17;4.67;;;;;;;;;;6350482;22;20403;-94
2021/03/18 11:47:53;;;;;;;5.97;5.27;;;;;;;;;;6350752;22;20403;-94
2021/03/18 11:50:20;;;;;;;7.80;6.47;;;;;;;;;;6349466;22;20399;-94
2021/03/18 11:52:46;;;;;;;6.90;5.23;;;;;;;;;;6354817;22;20430;-93
2021/03/18 11:55:12;;;;;;;6.43;4.87;;;;;;;;;;6348638;22;20409;-92
2021/03/18 11:57:38;;;;;;;7.60;5.17;;;;;;;;;;6352006;22;20455;-93
2021/03/18 12:00:06;;;;;;;7.20;5.77;;;;;;;;;;6351531;22;20434;-93
2021/03/18 12:02:32;;;;;;;8.27;5.87;;;;;;;;;;6352260;22;20407;-92
2021/03/18 12:04:58;;;;;;;12.90;6.33;;;;;;;;;;6348556;22;20417;-93
2021/03/18 12:07:25;;;;;;;7.47;5.97;;;;;;;;;;6347457;22;20468;-95
2021/03/18 12:09:51;;;;;;;7.80;5.63;;;;;;;;;;6351046;22;20418;-91
2021/03/18 12:12:17;;;;;;;6.30;5.23;;;;;;;;;;6349103;22;20418;-93
2021/03/18 12:14:43;;;;;;;5.20;4.63;;;;;;;;;;6352032;22;20407;-93
2021/03/18 12:17:09;;;;;;;8.23;7.37;;;;;;;;;;6353114;22;20476;-93
2021/03/18 12:19:35;;;;;;;10.13;5.60;;;;;;;;;;6349375;22;20474;-92
2021/03/18 12:22:01;;;;;;;5.47;4.90;;;;;;;;;;6349690;22;20414;-92
2021/03/18 12:24:28;;;;;;;4.70;4.30;;;;;;;;;;6351107;22;20433;-95
2021/03/18 12:26:54;;;;;;;5.97;4.80;;;;;;;;;;6347578;22;20426;-90
2021/03/18 12:29:20;;;;;;;5.40;4.90;;;;;;;;;;6351862;22;20440;-93
2021/03/18 12:31:46;;;;;;;5.73;5.13;;;;;;;;;;6347718;22;20433;-95
2021/03/18 12:34:12;;;;;;;5.60;4.40;;;;;;;;;;6349615;22;20403;-92
2021/03/18 12:36:38;;;;;;;6.03;5.10;;;;;;;;;;6347262;22;20477;-96
2021/03/18 12:39:05;;;;;;;8.53;4.90;;;;;;;;;;6352126;22;20424;-95
2021/03/18 12:41:32;;;;;;;6.13;5.53;;;;;;;;;;6350430;22;20403;-95
2021/03/18 12:43:59;;;;;;;4.90;4.50;;;;;;;;;;6351867;22;20437;-95
2021/03/18 12:46:25;;;;;;;5.10;4.60;;;;;;;;;;6348164;22;20407;-94
2021/03/18 12:48:51;;;;;;;9.73;4.97;;;;;;;;;;6346728;22;20424;-91
2021/03/18 12:51:17;;;;;;;5.53;4.87;;;;;;;;;;6347948;22;20410;-94
2021/03/18 12:53:43;;;;;;;5.83;4.77;;;;;;;;;;6350470;22;20434;-93
2021/03/18 12:56:09;;;;;;;5.70;5.20;;;;;;;;;;6352826;22;20430;-95
2021/03/18 12:58:36;;;;;;;8.10;6.20;;;;;;;;;;6349890;22;20411;-93
2021/03/18 13:01:03;;;;;;;9.97;6.50;;;;;;;;;;6351041;22;20425;-94
2021/03/18 13:03:29;;;;;;;6.87;5.70;;;;;;;;;;6348162;22;20440;-95
2021/03/18 13:05:55;;;;;;;5.73;5.10;;;;;;;;;;6345607;22;20434;-94
2021/03/18 13:08:21;;;;;;;6.70;5.67;;;;;;;;;;6346053;22;20403;-96
2021/03/18 13:10:48;;;;;;;5.63;4.90;;;;;;;;;;6347839;22;20456;-95
2021/03/18 13:13:15;;;;;;;7.60;6.80;;;;;;;;;;6321659;22;20407;-96
2021/03/18 13:15:42;;;;;;;7.30;5.40;;;;;;;;;;6352198;22;20399;-95
2021/03/18 13:18:10;;;;;;;6.70;5.50;;;;;;;;;;6355403;22;20411;-94
2021/03/18 13:20:36;;;;;;;9.27;6.20;;;;;;;;;;6354553;22;20421;-94
2021/03/18 13:23:03;;;;;;;8.50;7.37;;;;;;;;;;6355239;22;20719;-96
2021/03/18 13:25:29;;;;;;;8.87;7.00;;;;;;;;;;6355027;22;20411;-96
2021/03/18 13:27:56;;;;;;;8.07;7.20;;;;;;;;;;6351966;22;20407;-94
2021/03/18 13:30:23;;;;;;;6.00;5.40;;;;;;;;;;6350922;22;20414;-94
2021/03/18 13:32:52;;;;;;;7.60;5.23;;;;;;;;;;6354287;22;20419;-95
2021/03/18 13:35:19;;;;;;;5.50;4.80;;;;;;;;;;6352110;22;20395;-94
2021/03/18 13:37:46;;;;;;;7.50;4.97;;;;;;;;;;6350784;22;20822;-96
2021/03/18 13:40:13;;;;;;;7.87;5.97;;;;;;;;;;6350797;22;20413;-96
2021/03/18 13:42:39;;;;;;;7.67;6.00;;;;;;;;;;6347584;22;20436;-94
2021/03/18 13:45:06;;;;;;;5.70;5.10;;;;;;;;;;6343416;22;20474;-94
2021/03/18 13:47:35;;;;;;;5.23;4.73;;;;;;;;;;6353171;22;20383;-96
2021/03/18 13:50:03;;;;;;;5.87;5.30;;;;;;;;;;6331185;22;20420;-96
2021/03/18 13:52:29;;;;;;;7.30;6.10;;;;;;;;;;6353783;22;21041;-95
2021/03/18 13:54:55;;;;;;;6.60;6.00;;;;;;;;;;6350659;22;20424;-95
2021/03/18 13:57:21;;;;;;;6.73;5.83;;;;;;;;;;6353458;22;20514;-95
2021/03/18 13:59:47;;;;;;;8.33;5.27;;;;;;;;;;6325394;22;20407;-95
2021/03/18 14:02:16;;;;;;;6.07;5.47;;;;;;;;;;6358846;22;20403;-96
2021/03/18 14:04:43;;;;;;;6.33;5.30;;;;;;;;;;6355935;22;20418;-95
2021/03/18 14:07:11;;;;;;;7.33;5.60;;;;;;;;;;6359165;22;20480;-95
2021/03/18 14:09:40;;;;;;;7.63;6.20;;;;;;;;;;6357839;22;20408;-94
2021/03/18 14:12:07;;;;;;;6.20;5.13;;;;;;;;;;6353690;22;20395;-94
2021/03/18 14:14:35;;;;;;;5.90;5.40;;;;;;;;;;6355525;22;20410;-95
2021/03/18 14:17:01;;;;;;;6.47;5.87;;;;;;;;;;6350991;22;20454;-92
2021/03/18 14:19:48;;;;;;;7.60;6.00;;;;;;;;;;6329828;22;20416;-95
2021/03/18 14:22:16;;;;;;;8.93;6.23;;;;;;;;;;6351449;22;20426;-96
2021/03/18 14:24:43;;;;;;;9.83;5.90;;;;;;;;;;6353968;22;20403;-95
2021/03/18 14:27:09;;;;;;;6.53;5.90;;;;;;;;;;6353462;22;20415;-94
2021/03/18 14:29:35;;;;;;;7.40;6.30;;;;;;;;;;6352553;22;20464;-93
2021/03/18 14:32:01;;;;;;;8.07;6.47;;;;;;;;;;6352859;22;20433;-94
2021/03/18 14:34:28;;;;;;;6.97;6.27;;;;;;;;;;6354486;22;20402;-94
2021/03/18 14:36:57;;;;;;;7.40;6.57;;;;;;;;;;6352281;22;20451;-95
2021/03/18 14:39:24;;;;;;;6.30;5.50;;;;;;;;;;6352686;22;20479;-94
2021/03/18 14:41:50;;;;;;;6.10;5.50;;;;;;;;;;6352796;22;20426;-94
2021/03/18 14:44:17;;;;;;;7.07;6.10;;;;;;;;;;6350906;22;20908;-94
2021/03/18 14:46:45;;;;;;;8.90;6.60;;;;;;;;;;6356518;22;21065;-96
2021/03/18 14:49:11;;;;;;;8.83;6.60;;;;;;;;;;6354480;22;20708;-95
2021/03/18 14:51:37;;;;;;;11.03;7.60;;;;;;;;;;6353632;22;20475;-94
2021/03/18 14:54:06;;;;;;;12.50;8.93;;;;;;;;;;6354413;22;20431;-95
2021/03/18 14:56:33;;;;;;;9.67;8.17;;;;;;;;;;6352438;22;20442;-95
2021/03/18 14:59:00;;;;;;;8.40;7.50;;;;;;;;;;6329127;22;20442;-95
2021/03/18 15:01:29;;;;;;;7.60;6.67;;;;;;;;;;6355508;22;20403;-94
2021/03/18 15:03:56;;;;;;;6.60;5.93;;;;;;;;;;6352802;22;20406;-93
2021/03/18 15:06:23;;;;;;;5.93;5.33;;;;;;;;;;6350246;22;20412;-96
2021/03/18 15:08:49;;;;;;;7.87;5.83;;;;;;;;;;6350316;22;20434;-94
2021/03/18 15:11:16;;;;;;;7.30;6.60;;;;;;;;;;6355857;22;20428;-95
2021/03/18 15:16:26;;;;;;;7.83;6.93;;;;;;;;;;6354558;22;20954;-95
2021/03/18 15:18:52;;;;;;;7.33;6.63;;;;;;;;;;6351133;22;20414;-95
2021/03/18 15:21:18;;;;;;;7.30;6.60;;;;;;;;;;6358539;22;20412;-95
2021/03/18 15:23:44;;;;;;;6.97;6.30;;;;;;;;;;6350275;22;20420;-95
2021/03/18 15:26:10;;;;;;;8.37;6.60;;;;;;;;;;6350088;22;20413;-94
2021/03/18 15:28:39;;;;;;;7.30;6.60;;;;;;;;;;6356980;22;20433;-94
2021/03/18 15:31:06;;;;;;;7.00;6.40;;;;;;;;;;6355198;22;20406;-94
2021/03/18 15:33:36;;;;;;;9.20;7.43;;;;;;;;;;6351449;22;20414;-95
2021/03/18 15:36:02;;;;;;;7.40;6.70;;;;;;;;;;6354477;22;20458;-95
2021/03/18 15:38:29;;;;;;;7.20;6.50;;;;;;;;;;6352572;22;20415;-94
2021/03/18 15:40:55;;;;;;;13.80;8.83;;;;;;;;;;6353028;22;20412;-94
2021/03/18 15:43:21;;;;;;;16.40;9.87;;;;;;;;;;6351601;22;20408;-93
2021/03/18 15:45:47;;;;;;;8.77;7.87;;;;;;;;;;6349888;22;20403;-95
2021/03/18 15:48:16;;;;;;;10.33;7.13;;;;;;;;;;6351049;22;20406;-95
2021/03/18 15:50:44;;;;;;;8.87;7.97;;;;;;;;;;6354102;22;20460;-96
2021/03/18 15:53:10;;;;;;;8.30;7.50;;;;;;;;;;6355765;22;20437;-95
2021/03/18 15:55:36;;;;;;;9.83;8.60;;;;;;;;;;6346227;22;20422;-95
2021/03/18 15:58:03;;;;;;;8.43;7.63;;;;;;;;;;6350053;22;20431;-94
2021/03/18 16:00:29;;;;;;;10.30;8.97;;;;;;;;;;6348806;22;20412;-94
2021/03/18 16:02:55;;;;;;;10.37;8.93;;;;;;;;;;6348794;22;20411;-94
2021/03/18 16:05:24;;;;;;;9.60;8.60;;;;;;;;;;6348013;22;20421;-92
2021/03/18 16:07:50;;;;;;;9.97;8.93;;;;;;;;;;6348053;22;20430;-93
2021/03/18 16:10:16;;;;;;;11.10;9.80;;;;;;;;;;6347081;22;20413;-94
2021/03/18 16:12:42;;;;;;;15.77;11.80;;;;;;;;;;6350453;22;20411;-94
2021/03/18 16:15:09;;;;;;;13.80;10.73;;;;;;;;;;6349867;22;20412;-93
2021/03/18 16:17:35;;;;;;;11.80;10.60;;;;;;;;;;6347041;22;20978;-94
2021/03/18 16:20:01;;;;;;;16.00;11.10;;;;;;;;;;6346968;22;20415;-94
2021/03/18 16:22:29;;;;;;;15.10;10.30;;;;;;;;;;6348858;22;20415;-94
2021/03/18 16:24:55;;;;;;;14.00;9.60;;;;;;;;;;6349993;22;20411;-95
2021/03/18 16:27:21;;;;;;;11.43;10.10;;;;;;;;;;6349485;22;20404;-94
2021/03/18 16:29:47;;;;;;;16.43;10.30;;;;;;;;;;6348687;22;20745;-94
2021/03/18 16:32:13;;;;;;;11.53;10.20;;;;;;;;;;6346459;22;20406;-93
2021/03/18 16:34:40;;;;;;;12.53;10.83;;;;;;;;;;6347363;22;20459;-94
2021/03/18 16:37:06;;;;;;;12.73;10.67;;;;;;;;;;6345027;22;20451;-94
2021/03/18 16:39:33;;;;;;;13.70;10.20;;;;;;;;;;6349821;22;20405;-95
2021/03/18 16:41:59;;;;;;;13.97;11.10;;;;;;;;;;6349997;22;20403;-94
2021/03/18 16:44:26;;;;;;;13.47;11.10;;;;;;;;;;6348801;22;20403;-94
2021/03/18 16:46:52;;;;;;;21.10;12.40;;;;;;;;;;6348282;22;20453;-95
2021/03/18 16:49:18;;;;;;;17.63;12.50;;;;;;;;;;6351466;22;20410;-95
2021/03/18 16:51:44;;;;;;;19.50;13.13;;;;;;;;;;6348542;22;20417;-95
2021/03/18 16:54:10;;;;;;;16.10;12.37;;;;;;;;;;6348822;22;20434;-95
2021/03/18 16:56:37;;;;;;;16.97;13.20;;;;;;;;;;6348554;22;20881;-95
2021/03/18 16:59:04;;;;;;;22.53;14.10;;;;;;;;;;6349875;22;20415;-96
2021/03/18 17:01:30;;;;;;;16.75;13.85;;;;;;;;;;6350586;22;20414;-96
2021/03/18 17:03:56;;;;;;;19.57;14.10;;;;;;;;;;6351718;22;20928;-96
2021/03/18 17:06:22;;;;;;;18.30;13.50;;;;;;;;;;6350600;22;20423;-96
2021/03/18 17:08:49;;;;;;;15.57;11.73;;;;;;;;;;6350479;22;20437;-96
2021/03/18 17:11:15;;;;;;;16.80;12.52;;;;;;;;;;6351994;22;20406;-94
2021/03/18 17:13:42;;;;;;;14.47;11.77;;;;;;;;;;6350360;22;20664;-95
2021/03/18 17:16:09;;;;;;;13.70;11.10;;;;;;;;;;6352775;22;20437;-96
2021/03/18 17:18:35;;;;;;;13.15;10.65;;;;;;;;;;6348754;22;20409;-96
2021/03/18 17:21:01;;;;;;;22.20;12.70;;;;;;;;;;6355624;22;20183;-96
2021/03/18 17:23:28;;;;;;;17.80;13.87;;;;;;;;;;6357399;22;20173;-96
2021/03/18 17:26:00;;;;;;;17.25;12.68;;;;;;;;;;6357648;22;20409;-96
2021/03/18 17:28:27;;;;;;;23.17;18.08;;;;;;;;;;6357793;22;20177;-96
2021/03/18 17:30:57;;;;;;;26.58;19.65;;;;;;;;;;6356653;22;20221;-96
2021/03/18 17:33:23;;;;;;;20.33;15.52;;;;;;;;;;6352335;22;20200;-95
2021/03/18 17:35:50;;;;;;;20.35;15.30;;;;;;;;;;6352412;22;20202;-95
2021/03/18 17:38:16;;;;;;;28.15;18.25;;;;;;;;;;6354538;22;20612;-96
2021/03/18 17:40:44;;;;;;;22.98;15.95;;;;;;;;;;6353300;22;20221;-96
2021/03/18 17:43:18;;;;;;;22.55;16.00;;;;;;;;;;6351742;22;20176;-96
2021/03/18 17:45:45;;;;;;;25.70;18.25;;;;;;;;;;6358254;22;20181;-96
2021/03/18 17:48:13;;;;;;;34.50;23.38;;;;;;;;;;6360977;22;20245;-96
2021/03/18 17:50:41;;;;;;;24.83;17.67;;;;;;;;;;6362011;22;20190;-96
2021/03/18 17:53:10;;;;;;;31.73;22.33;;;;;;;;;;6331220;22;20256;-96
2021/03/18 17:55:41;;;;;;;31.67;20.88;;;;;;;;;;6354560;22;20172;-96
2021/03/18 17:58:07;;;;;;;28.17;20.65;;;;;;;;;;6358628;22;20208;-96
2021/03/18 18:00:34;;;;;;;29.90;20.73;;;;;;;;;;6357435;22;20177;-96
2021/03/18 18:03:02;;;;;;;31.77;22.73;;;;;;;;;;6332749;22;20165;-96
2021/03/18 18:05:36;;;;;;;28.77;20.17;;;;;;;;;;6362493;22;20219;-95
2021/03/18 18:08:02;;;;;;;28.08;20.55;;;;;;;;;;6358914;22;20192;-96
2021/03/18 18:10:32;;;;;;;29.08;20.55;;;;;;;;;;6333990;22;20216;-96
2021/03/18 18:12:59;;;;;;;27.20;19.70;;;;;;;;;;6360917;22;20225;-96
2021/03/18 18:15:33;;;;;;;24.55;17.13;;;;;;;;;;6346205;22;20209;-96
2021/03/18 18:20:45;;;;;;;27.58;19.85;;;;;;;;;;6323591;22;20204;-96
2021/03/18 18:23:20;;;;;;;28.38;19.38;;;;;;;;;;6327759;22;20173;-96
2021/03/18 18:25:47;;;;;;;27.60;19.85;;;;;;;;;;6327728;22;20247;-96
2021/03/18 18:28:18;;;;;;;29.10;19.45;;;;;;;;;;6329225;22;20169;-96
2021/03/18 18:30:48;;;;;;;25.48;19.90;;;;;;;;;;6328220;22;20251;-96
2021/03/18 18:33:15;;;;;;;29.75;20.70;;;;;;;;;;6322066;22;20218;-96
2021/03/18 18:35:43;;;;;;;26.60;20.10;;;;;;;;;;6319574;22;20170;-96
2021/03/18 18:38:10;;;;;;;29.23;18.85;;;;;;;;;;6322317;22;20197;-96